Time;durP1;ratioP1;P1;durP2;ratioP2;P2;SDS_P1;SDS_P2;PMS_P1;PMS_P2;Temp;Humidity;BMP_temperature;BMP_pressure;BME280_temperature;BME280_humidity;BME280_pressure;Samples;Min_cycle;Max_cycle;Signal;HPM_P1;HPM_P2
2022/01/30 00:01:07;;;;;;;1.10;0.40;;;;;;;;;;5041731;28;20124;-71
2022/01/30 00:03:38;;;;;;;0.80;0.40;;;;;;;;;;4651325;28;10003198;-73
2022/01/30 00:06:07;;;;;;;0.70;0.50;;;;;;;;;;691553;28;10001979;-71
2022/01/30 00:08:35;;;;;;;1.00;0.45;;;;;;;;;;5020304;28;20054;-71
2022/01/30 00:11:13;;;;;;;1.50;0.60;;;;;;;;;;5027110;28;20501;-71
2022/01/30 00:13:41;;;;;;;0.60;0.32;;;;;;;;;;5022996;28;20081;-71
2022/01/30 00:16:10;;;;;;;0.63;0.55;;;;;;;;;;5029870;28;20045;-71
2022/01/30 00:18:48;;;;;;;0.70;0.50;;;;;;;;;;5025859;28;20046;-72
2022/01/30 00:21:30;;;;;;;0.52;0.40;;;;;;;;;;5031717;28;20103;-71
2022/01/30 00:24:03;;;;;;;1.15;0.52;;;;;;;;;;5024985;28;20129;-71
2022/01/30 00:26:34;;;;;;;2.05;0.60;;;;;;;;;;5030796;28;20144;-71
2022/01/30 00:29:02;;;;;;;0.70;0.60;;;;;;;;;;5023119;28;20048;-71
2022/01/30 00:31:32;;;;;;;0.75;0.47;;;;;;;;;;5024560;28;20100;-70
2022/01/30 00:34:22;;;;;;;2.50;0.50;;;;;;;;;;5029479;28;20045;-71
2022/01/30 00:36:50;;;;;;;3.05;0.38;;;;;;;;;;5021680;28;20097;-71
2022/01/30 00:39:18;;;;;;;0.30;0.28;;;;;;;;;;5026497;28;20417;-70
2022/01/30 00:41:46;;;;;;;0.65;0.52;;;;;;;;;;5022884;28;20069;-70
2022/01/30 00:44:15;;;;;;;0.93;0.43;;;;;;;;;;5028600;28;20060;-70
2022/01/30 00:46:44;;;;;;;0.40;0.40;;;;;;;;;;5026917;28;20041;-70
2022/01/30 00:49:13;;;;;;;1.27;0.60;;;;;;;;;;5026179;28;20580;-70
2022/01/30 00:51:42;;;;;;;1.70;0.50;;;;;;;;;;5023963;28;20053;-70
2022/01/30 00:54:10;;;;;;;1.27;0.60;;;;;;;;;;5023957;28;20232;-70
2022/01/30 00:56:39;;;;;;;0.68;0.40;;;;;;;;;;5021519;28;20136;-71
2022/01/30 00:59:07;;;;;;;0.80;0.43;;;;;;;;;;5028345;28;20137;-70
2022/01/30 01:01:36;;;;;;;0.50;0.40;;;;;;;;;;5023510;28;20172;-72
2022/01/30 01:04:05;;;;;;;1.08;0.68;;;;;;;;;;5026817;28;20055;-71
2022/01/30 01:06:33;;;;;;;0.85;0.50;;;;;;;;;;5022179;28;20051;-70
2022/01/30 01:09:05;;;;;;;0.82;0.60;;;;;;;;;;5027550;28;20052;-71
2022/01/30 01:12:11;;;;;;;0.50;0.50;;;;;;;;;;5019590;28;20049;-70
2022/01/30 01:25:48;;;;;;;1.15;0.40;;;;;;;;;;5044248;28;20131;-71
2022/01/30 01:28:16;;;;;;;0.98;0.50;;;;;;;;;;5047723;28;20142;-70
2022/01/30 01:30:45;;;;;;;0.93;0.60;;;;;;;;;;5048456;28;20040;-70
2022/01/30 01:33:14;;;;;;;1.02;0.52;;;;;;;;;;5049663;28;20147;-70
2022/01/30 01:35:43;;;;;;;1.02;0.60;;;;;;;;;;5047371;28;20049;-71
2022/01/30 01:38:13;;;;;;;0.52;0.40;;;;;;;;;;5049693;28;20071;-71
2022/01/30 01:40:42;;;;;;;0.22;0.22;;;;;;;;;;5046417;28;20124;-71
2022/01/30 01:43:12;;;;;;;0.50;0.43;;;;;;;;;;5044631;28;20140;-71
2022/01/30 01:45:41;;;;;;;0.35;0.30;;;;;;;;;;5034300;28;20467;-71
2022/01/30 01:48:12;;;;;;;0.70;0.45;;;;;;;;;;5045304;28;20049;-71
2022/01/30 01:50:43;;;;;;;0.85;0.40;;;;;;;;;;5043976;28;20452;-71
2022/01/30 01:53:12;;;;;;;0.52;0.40;;;;;;;;;;5036855;28;20053;-71
2022/01/30 01:55:41;;;;;;;0.60;0.40;;;;;;;;;;5050160;28;20480;-71
2022/01/30 01:58:09;;;;;;;0.35;0.35;;;;;;;;;;5046503;28;20199;-71
2022/01/30 02:00:39;;;;;;;0.40;0.40;;;;;;;;;;5041687;28;20106;-71
2022/01/30 02:03:08;;;;;;;0.32;0.32;;;;;;;;;;5044166;28;20404;-70
2022/01/30 02:05:36;;;;;;;0.50;0.40;;;;;;;;;;5041757;28;20065;-70
2022/01/30 02:08:28;;;;;;;0.30;0.30;;;;;;;;;;5043697;28;20138;-70
2022/01/30 02:11:01;;;;;;;0.40;0.40;;;;;;;;;;5041014;28;20041;-71
2022/01/30 02:13:49;;;;;;;1.00;0.60;;;;;;;;;;5045208;28;20099;-70
2022/01/30 02:25:17;;;;;;;1.30;0.52;;;;;;;;;;5039828;28;20076;-70
2022/01/30 02:27:46;;;;;;;0.65;0.63;;;;;;;;;;5044704;28;20245;-71
2022/01/30 02:30:18;;;;;;;1.02;0.60;;;;;;;;;;5046899;28;20131;-70
2022/01/30 02:32:47;;;;;;;0.47;0.40;;;;;;;;;;5043466;28;20045;-70
2022/01/30 02:35:15;;;;;;;0.40;0.30;;;;;;;;;;5042132;28;20118;-70
2022/01/30 02:37:47;;;;;;;0.77;0.40;;;;;;;;;;5032598;28;20469;-69
2022/01/30 02:40:16;;;;;;;0.80;0.40;;;;;;;;;;5047138;28;20083;-70
2022/01/30 02:42:49;;;;;;;0.68;0.40;;;;;;;;;;5047363;28;20135;-70
2022/01/30 02:45:18;;;;;;;0.70;0.40;;;;;;;;;;5044451;28;20080;-70
2022/01/30 02:47:59;;;;;;;0.80;0.47;;;;;;;;;;5039557;28;20128;-71
2022/01/30 02:50:37;;;;;;;0.80;0.40;;;;;;;;;;5036985;28;20061;-70
2022/01/30 02:53:09;;;;;;;0.60;0.60;;;;;;;;;;5036847;28;20465;-70
2022/01/30 02:55:39;;;;;;;0.47;0.45;;;;;;;;;;5033926;28;20449;-70
2022/01/30 02:58:07;;;;;;;0.75;0.40;;;;;;;;;;5033130;28;20152;-70
2022/01/30 03:00:35;;;;;;;0.43;0.43;;;;;;;;;;5033074;28;20061;-70
2022/01/30 03:03:04;;;;;;;0.70;0.50;;;;;;;;;;5039468;28;20132;-70
2022/01/30 03:05:32;;;;;;;0.82;0.82;;;;;;;;;;5046663;28;20445;-71
2022/01/30 03:08:06;;;;;;;0.70;0.50;;;;;;;;;;4803023;28;10001050;-71
2022/01/30 03:10:34;;;;;;;0.85;0.50;;;;;;;;;;689243;28;10002122;-71
2022/01/30 03:13:04;;;;;;;0.50;0.40;;;;;;;;;;5014308;28;20493;-71
2022/01/30 03:15:32;;;;;;;1.13;0.68;;;;;;;;;;5025263;28;20411;-70
2022/01/30 03:18:00;;;;;;;0.60;0.50;;;;;;;;;;5023309;28;20088;-71
2022/01/30 03:20:29;;;;;;;0.85;0.50;;;;;;;;;;5038859;28;20056;-70
2022/01/30 03:22:59;;;;;;;0.40;0.40;;;;;;;;;;5031828;28;20052;-70
2022/01/30 03:25:27;;;;;;;0.65;0.50;;;;;;;;;;5042392;28;20049;-71
2022/01/30 03:27:55;;;;;;;0.60;0.50;;;;;;;;;;5035450;28;20144;-71
2022/01/30 03:30:28;;;;;;;1.35;0.30;;;;;;;;;;5039938;28;20135;-71
2022/01/30 03:32:57;;;;;;;0.80;0.50;;;;;;;;;;5034262;28;20473;-71
2022/01/30 03:35:25;;;;;;;0.30;0.30;;;;;;;;;;5040044;28;20080;-71
2022/01/30 03:37:54;;;;;;;0.60;0.50;;;;;;;;;;5034129;28;20042;-71
2022/01/30 03:40:22;;;;;;;0.30;0.30;;;;;;;;;;5034000;28;20055;-71
2022/01/30 03:42:50;;;;;;;0.47;0.47;;;;;;;;;;5034332;28;20148;-70
2022/01/30 03:45:19;;;;;;;0.40;0.30;;;;;;;;;;5034756;28;20041;-71
2022/01/30 03:47:51;;;;;;;0.88;0.50;;;;;;;;;;5038773;28;20475;-72
2022/01/30 03:50:19;;;;;;;0.55;0.40;;;;;;;;;;5036317;28;20079;-71
2022/01/30 03:52:47;;;;;;;2.17;0.70;;;;;;;;;;5042025;28;20057;-71
2022/01/30 03:55:16;;;;;;;0.65;0.32;;;;;;;;;;5038499;28;20079;-71
2022/01/30 03:57:44;;;;;;;0.65;0.60;;;;;;;;;;5044013;28;20141;-71
2022/01/30 04:00:13;;;;;;;0.45;0.40;;;;;;;;;;5046197;28;20076;-71
2022/01/30 04:02:41;;;;;;;0.35;0.35;;;;;;;;;;5045437;28;20092;-71
2022/01/30 04:05:11;;;;;;;0.80;0.40;;;;;;;;;;5042135;28;20476;-71
2022/01/30 04:07:39;;;;;;;0.52;0.40;;;;;;;;;;5039016;28;20049;-71
2022/01/30 04:10:09;;;;;;;0.40;0.40;;;;;;;;;;5041391;28;20072;-70
2022/01/30 04:12:37;;;;;;;1.20;0.60;;;;;;;;;;5035728;28;20469;-70
2022/01/30 04:15:06;;;;;;;1.17;0.50;;;;;;;;;;5042478;28;20056;-71
2022/01/30 04:17:35;;;;;;;0.82;0.50;;;;;;;;;;5047935;28;20052;-71
2022/01/30 04:20:04;;;;;;;0.57;0.50;;;;;;;;;;5038083;28;20060;-71
2022/01/30 04:22:33;;;;;;;0.68;0.50;;;;;;;;;;5041202;28;20046;-71
2022/01/30 04:25:02;;;;;;;0.60;0.60;;;;;;;;;;5046162;28;20037;-71
2022/01/30 04:27:30;;;;;;;0.70;0.40;;;;;;;;;;5049037;28;20445;-71
2022/01/30 04:29:58;;;;;;;0.73;0.40;;;;;;;;;;5032233;28;20051;-70
2022/01/30 04:32:29;;;;;;;0.82;0.47;;;;;;;;;;5041543;28;20041;-70
2022/01/30 04:34:59;;;;;;;1.58;0.40;;;;;;;;;;5035826;28;20048;-71
2022/01/30 04:37:47;;;;;;;0.93;0.50;;;;;;;;;;5044120;28;20041;-71
2022/01/30 04:40:39;;;;;;;2.03;0.80;;;;;;;;;;5043614;28;20059;-71
2022/01/30 04:57:37;;;;;;;2.30;0.52;;;;;;;;;;5047134;28;20368;-71
2022/01/30 05:00:21;;;;;;;0.88;0.68;;;;;;;;;;5044452;28;20157;-72
2022/01/30 05:02:57;;;;;;;0.60;0.47;;;;;;;;;;5047344;28;20049;-71
2022/01/30 05:05:44;;;;;;;0.40;0.40;;;;;;;;;;5046966;28;20114;-71
2022/01/30 05:08:12;;;;;;;1.42;0.88;;;;;;;;;;5047537;28;20132;-71
2022/01/30 05:10:42;;;;;;;1.33;0.50;;;;;;;;;;5042609;28;20160;-71
2022/01/30 05:13:15;;;;;;;0.30;0.30;;;;;;;;;;5047734;28;20066;-70
2022/01/30 05:15:44;;;;;;;0.70;0.60;;;;;;;;;;5045849;28;20059;-71
2022/01/30 05:18:17;;;;;;;0.65;0.50;;;;;;;;;;5044463;28;20076;-71
2022/01/30 05:20:46;;;;;;;1.45;0.85;;;;;;;;;;5046249;28;20363;-71
2022/01/30 05:23:16;;;;;;;0.90;0.75;;;;;;;;;;5048474;28;20175;-70
2022/01/30 05:25:46;;;;;;;3.00;0.90;;;;;;;;;;5035940;28;20042;-70
2022/01/30 05:28:14;;;;;;;0.70;0.63;;;;;;;;;;5032145;28;20501;-70
2022/01/30 05:30:43;;;;;;;1.27;0.80;;;;;;;;;;5037785;28;20041;-70
2022/01/30 05:33:12;;;;;;;0.70;0.60;;;;;;;;;;5036953;28;20077;-70
2022/01/30 05:35:40;;;;;;;2.67;1.10;;;;;;;;;;5042456;28;20056;-70
2022/01/30 05:38:09;;;;;;;1.92;0.73;;;;;;;;;;4971818;28;20050;-70
2022/01/30 05:40:37;;;;;;;0.42;0.40;;;;;;;;;;316666;28;10022641;-71
2022/01/30 05:43:07;;;;;;;0.75;0.75;;;;;;;;;;5033065;28;20045;-70
2022/01/30 05:45:39;;;;;;;1.08;0.70;;;;;;;;;;5046742;28;20051;-71
2022/01/30 05:48:11;;;;;;;0.50;0.40;;;;;;;;;;5034239;28;20116;-70
2022/01/30 05:50:40;;;;;;;0.90;0.65;;;;;;;;;;5045184;28;20041;-71
2022/01/30 05:53:08;;;;;;;0.80;0.50;;;;;;;;;;5045402;28;20048;-71
2022/01/30 05:55:36;;;;;;;0.60;0.60;;;;;;;;;;5048850;28;20049;-71
2022/01/30 05:58:05;;;;;;;0.60;0.50;;;;;;;;;;5043654;28;20061;-71
2022/01/30 06:00:35;;;;;;;1.13;0.70;;;;;;;;;;5045386;28;20409;-71
2022/01/30 06:03:03;;;;;;;1.33;0.88;;;;;;;;;;5039042;28;20477;-71
2022/01/30 06:05:32;;;;;;;0.90;0.80;;;;;;;;;;5037439;28;20045;-70
2022/01/30 06:08:10;;;;;;;0.95;0.73;;;;;;;;;;5047102;28;20084;-70
2022/01/30 06:10:38;;;;;;;2.15;0.70;;;;;;;;;;5038656;28;20080;-71
2022/01/30 06:13:06;;;;;;;2.30;1.40;;;;;;;;;;5053382;28;20060;-70
2022/01/30 06:15:36;;;;;;;1.70;1.20;;;;;;;;;;5034350;28;20068;-71
2022/01/30 06:18:05;;;;;;;1.65;1.25;;;;;;;;;;5041921;28;20489;-71
2022/01/30 06:20:33;;;;;;;2.42;1.00;;;;;;;;;;5045183;28;20140;-70
2022/01/30 06:23:01;;;;;;;1.13;0.88;;;;;;;;;;5042801;28;20045;-70
2022/01/30 06:25:29;;;;;;;1.73;1.17;;;;;;;;;;5047141;28;20051;-71
2022/01/30 06:27:58;;;;;;;1.05;0.70;;;;;;;;;;5037457;28;20099;-72
2022/01/30 06:30:27;;;;;;;2.15;1.10;;;;;;;;;;5046886;28;20132;-72
2022/01/30 06:32:57;;;;;;;0.90;0.73;;;;;;;;;;5037621;28;20125;-70
2022/01/30 06:35:25;;;;;;;1.45;1.20;;;;;;;;;;5042939;28;20133;-71
2022/01/30 06:37:54;;;;;;;2.55;0.80;;;;;;;;;;5035047;28;20048;-71
2022/01/30 06:40:22;;;;;;;2.38;0.90;;;;;;;;;;5040085;28;20059;-72
2022/01/30 06:42:50;;;;;;;1.40;0.70;;;;;;;;;;5042597;28;20045;-71
2022/01/30 06:45:19;;;;;;;2.05;0.60;;;;;;;;;;5047698;28;20147;-71
2022/01/30 06:47:48;;;;;;;1.95;0.82;;;;;;;;;;5042657;28;20551;-71
2022/01/30 06:50:17;;;;;;;1.38;0.70;;;;;;;;;;5044274;28;20136;-71
2022/01/30 06:52:46;;;;;;;1.02;0.80;;;;;;;;;;5043085;28;20045;-71
2022/01/30 06:55:14;;;;;;;1.55;0.65;;;;;;;;;;5046962;28;20140;-71
2022/01/30 06:57:43;;;;;;;1.77;0.82;;;;;;;;;;5041300;28;20068;-72
2022/01/30 07:00:12;;;;;;;2.00;0.80;;;;;;;;;;5046673;28;20050;-72
2022/01/30 07:02:40;;;;;;;1.35;0.80;;;;;;;;;;5045375;28;20048;-71
2022/01/30 07:05:09;;;;;;;1.73;0.70;;;;;;;;;;5044817;28;20572;-71
2022/01/30 07:07:39;;;;;;;1.20;0.80;;;;;;;;;;5043116;28;20140;-71
2022/01/30 07:10:07;;;;;;;0.95;0.75;;;;;;;;;;5041060;28;20052;-71
2022/01/30 07:12:36;;;;;;;3.03;1.20;;;;;;;;;;5042034;28;20044;-71
2022/01/30 07:15:04;;;;;;;6.20;1.08;;;;;;;;;;5032167;28;20047;-71
2022/01/30 07:17:32;;;;;;;1.02;0.80;;;;;;;;;;5037642;28;20548;-70
2022/01/30 07:20:01;;;;;;;3.00;1.00;;;;;;;;;;5040881;28;20544;-71
2022/01/30 07:22:29;;;;;;;2.03;0.82;;;;;;;;;;5038753;28;20600;-71
2022/01/30 07:25:12;;;;;;;0.85;0.75;;;;;;;;;;1765392;28;10021851;-71
2022/01/30 07:27:42;;;;;;;1.90;0.93;;;;;;;;;;4001385;28;10001513;-71
2022/01/30 07:30:11;;;;;;;1.52;0.70;;;;;;;;;;5038767;28;20124;-71
2022/01/30 07:32:40;;;;;;;1.75;1.00;;;;;;;;;;5037715;28;20076;-71
2022/01/30 07:35:08;;;;;;;1.63;0.90;;;;;;;;;;5048793;28;20068;-71
2022/01/30 07:37:37;;;;;;;5.15;0.85;;;;;;;;;;5045843;28;20116;-70
2022/01/30 07:40:06;;;;;;;3.55;1.00;;;;;;;;;;5033062;28;20053;-71
2022/01/30 07:42:36;;;;;;;1.50;0.77;;;;;;;;;;5043494;28;20071;-72
2022/01/30 07:45:05;;;;;;;1.00;0.60;;;;;;;;;;5036989;28;20056;-71
2022/01/30 07:47:33;;;;;;;0.52;0.52;;;;;;;;;;5047077;28;20140;-71
2022/01/30 07:50:01;;;;;;;1.35;0.85;;;;;;;;;;5037403;28;20046;-70
2022/01/30 07:52:30;;;;;;;1.13;0.50;;;;;;;;;;5039884;28;20053;-70
2022/01/30 07:54:59;;;;;;;0.77;0.68;;;;;;;;;;5042269;28;20053;-72
2022/01/30 07:57:27;;;;;;;2.85;1.10;;;;;;;;;;5045844;28;20069;-70
2022/01/30 07:59:57;;;;;;;1.55;0.70;;;;;;;;;;5046457;28;20053;-71
2022/01/30 08:02:25;;;;;;;3.90;0.50;;;;;;;;;;5046656;28;20129;-70
2022/01/30 08:04:54;;;;;;;4.03;0.70;;;;;;;;;;5039279;28;20049;-72
2022/01/30 08:07:26;;;;;;;3.78;0.95;;;;;;;;;;5043047;28;20654;-71
2022/01/30 08:09:54;;;;;;;1.25;0.70;;;;;;;;;;5040366;28;20132;-71
2022/01/30 08:12:22;;;;;;;4.60;0.88;;;;;;;;;;5033592;28;20264;-72
2022/01/30 08:14:51;;;;;;;1.20;0.80;;;;;;;;;;5031993;28;20049;-71
2022/01/30 08:17:22;;;;;;;2.00;1.15;;;;;;;;;;5033448;28;20056;-71
2022/01/30 08:20:03;;;;;;;2.22;1.02;;;;;;;;;;2803484;28;10002397;-71
2022/01/30 08:22:32;;;;;;;3.05;1.00;;;;;;;;;;3299299;28;10001177;-72
2022/01/30 08:25:00;;;;;;;2.30;1.10;;;;;;;;;;5045898;28;20448;-72
2022/01/30 08:27:28;;;;;;;2.10;1.15;;;;;;;;;;5047524;28;20049;-71
2022/01/30 08:29:56;;;;;;;3.10;1.02;;;;;;;;;;5047222;28;20078;-71
2022/01/30 08:32:26;;;;;;;7.15;1.23;;;;;;;;;;5038070;28;20077;-70
2022/01/30 08:34:59;;;;;;;;;;;;;;;;;;5045128;28;20494;-70
2022/01/30 08:37:28;;;;;;;5.50;1.30;;;;;;;;;;5032068;28;19933;-71
2022/01/30 08:39:56;;;;;;;4.30;1.40;;;;;;;;;;5039706;28;20042;-70
2022/01/30 08:42:24;;;;;;;0.90;0.68;;;;;;;;;;5041041;28;20496;-71
2022/01/30 08:44:53;;;;;;;2.95;0.65;;;;;;;;;;5030404;28;20132;-71
2022/01/30 08:47:21;;;;;;;3.55;0.93;;;;;;;;;;5040172;28;20049;-72
2022/01/30 08:49:50;;;;;;;1.60;0.80;;;;;;;;;;5044669;28;20468;-71
2022/01/30 08:52:19;;;;;;;6.07;1.00;;;;;;;;;;5038893;28;20056;-71
2022/01/30 08:54:48;;;;;;;2.15;0.95;;;;;;;;;;5046087;28;20076;-71
2022/01/30 08:57:16;;;;;;;3.55;0.60;;;;;;;;;;5045726;28;20084;-72
2022/01/30 08:59:44;;;;;;;4.22;0.70;;;;;;;;;;5036302;28;20054;-72
2022/01/30 09:02:12;;;;;;;3.83;0.70;;;;;;;;;;5043192;28;20153;-72
2022/01/30 09:04:41;;;;;;;0.70;0.45;;;;;;;;;;5045150;28;20424;-71
2022/01/30 09:07:11;;;;;;;1.35;0.43;;;;;;;;;;5035598;28;20053;-72
2022/01/30 09:09:39;;;;;;;1.38;0.80;;;;;;;;;;5042315;28;20045;-71
2022/01/30 09:12:08;;;;;;;1.27;0.68;;;;;;;;;;5040865;28;20076;-71
2022/01/30 09:14:40;;;;;;;2.78;1.20;;;;;;;;;;5044552;28;20056;-71
2022/01/30 09:17:12;;;;;;;1.92;0.70;;;;;;;;;;5036766;28;20394;-71
2022/01/30 09:19:48;;;;;;;2.72;0.68;;;;;;;;;;5047556;28;20628;-72
2022/01/30 09:22:19;;;;;;;4.85;1.02;;;;;;;;;;5043664;28;20489;-72
2022/01/30 09:24:49;;;;;;;1.00;0.68;;;;;;;;;;5045917;28;20045;-72
2022/01/30 09:27:17;;;;;;;1.85;1.27;;;;;;;;;;5041346;28;20048;-72
2022/01/30 09:29:46;;;;;;;3.55;0.90;;;;;;;;;;5041851;28;20068;-72
2022/01/30 09:32:15;;;;;;;5.82;1.45;;;;;;;;;;5041490;28;20053;-72
2022/01/30 09:34:43;;;;;;;1.63;1.13;;;;;;;;;;5038877;28;20099;-72
2022/01/30 09:37:12;;;;;;;2.97;0.93;;;;;;;;;;5035378;28;20069;-71
2022/01/30 09:39:42;;;;;;;4.68;1.20;;;;;;;;;;5035864;28;20064;-72
2022/01/30 09:42:11;;;;;;;5.60;1.00;;;;;;;;;;5040652;28;20053;-72
2022/01/30 09:44:42;;;;;;;4.53;1.10;;;;;;;;;;5043759;28;20045;-72
2022/01/30 09:47:14;;;;;;;8.02;0.98;;;;;;;;;;5045466;28;20055;-72
2022/01/30 09:49:47;;;;;;;5.32;1.08;;;;;;;;;;5043464;28;20480;-72
2022/01/30 09:52:16;;;;;;;4.70;1.60;;;;;;;;;;5039503;28;20049;-71
2022/01/30 09:54:47;;;;;;;1.92;0.93;;;;;;;;;;5048050;28;20045;-72
2022/01/30 09:57:16;;;;;;;5.07;1.98;;;;;;;;;;5040719;28;20061;-71
2022/01/30 09:59:46;;;;;;;4.32;1.20;;;;;;;;;;5047210;28;20061;-72
2022/01/30 10:02:15;;;;;;;5.50;1.02;;;;;;;;;;5045408;28;20497;-71
2022/01/30 10:04:50;;;;;;;;;;;;;;;;;;3284213;28;10021476;-72
2022/01/30 10:07:26;;;;;;;3.97;1.15;;;;;;;;;;2601618;28;10002147;-72
2022/01/30 10:10:07;;;;;;;3.63;1.00;;;;;;;;;;5035548;28;20040;-71
2022/01/30 10:12:36;;;;;;;5.05;1.17;;;;;;;;;;5031449;28;20049;-71
2022/01/30 10:15:05;;;;;;;2.53;0.73;;;;;;;;;;5041166;28;20131;-72
2022/01/30 10:17:36;;;;;;;3.50;1.17;;;;;;;;;;5038448;28;20108;-72
2022/01/30 10:20:25;;;;;;;3.33;1.15;;;;;;;;;;5043927;28;20060;-71
2022/01/30 10:22:55;;;;;;;6.30;1.08;;;;;;;;;;5042461;28;20049;-72
2022/01/30 10:25:32;;;;;;;10.32;2.58;;;;;;;;;;5041595;28;20481;-72
2022/01/30 10:28:09;;;;;;;5.35;1.45;;;;;;;;;;5044067;28;20049;-72
2022/01/30 10:30:41;;;;;;;2.38;0.80;;;;;;;;;;5045167;28;20477;-72
2022/01/30 10:33:12;;;;;;;4.25;1.45;;;;;;;;;;5041405;28;20417;-71
2022/01/30 10:35:52;;;;;;;7.00;1.42;;;;;;;;;;5037260;28;20445;-71
2022/01/30 10:38:22;;;;;;;6.22;1.38;;;;;;;;;;5045989;28;20122;-71
2022/01/30 10:40:56;;;;;;;7.07;1.60;;;;;;;;;;5053526;28;20168;-72
2022/01/30 10:43:41;;;;;;;6.28;1.20;;;;;;;;;;5037480;28;20055;-72
2022/01/30 10:46:18;;;;;;;12.73;1.63;;;;;;;;;;5039167;28;20262;-72
2022/01/30 10:48:57;;;;;;;7.63;1.45;;;;;;;;;;5046393;28;20488;-71
2022/01/30 10:51:27;;;;;;;3.97;1.10;;;;;;;;;;5042240;28;20135;-72
2022/01/30 10:53:57;;;;;;;2.75;1.20;;;;;;;;;;5044963;28;20051;-72
2022/01/30 10:56:28;;;;;;;6.57;1.30;;;;;;;;;;5044161;28;20056;-72
2022/01/30 10:59:07;;;;;;;13.48;1.67;;;;;;;;;;5045956;28;20532;-72
2022/01/30 11:01:36;;;;;;;3.55;1.30;;;;;;;;;;5047564;28;20144;-71
2022/01/30 11:04:05;;;;;;;8.35;1.30;;;;;;;;;;5046243;28;20075;-71
2022/01/30 11:06:39;;;;;;;7.43;1.60;;;;;;;;;;5044671;28;20437;-71
2022/01/30 11:09:08;;;;;;;4.35;1.10;;;;;;;;;;5044191;28;20570;-71
2022/01/30 11:11:43;;;;;;;1.95;1.17;;;;;;;;;;5042767;28;20158;-72
2022/01/30 11:14:18;;;;;;;12.50;1.63;;;;;;;;;;5032692;28;20057;-72
2022/01/30 11:16:59;;;;;;;6.28;1.40;;;;;;;;;;5037145;28;20493;-72
2022/01/30 11:19:28;;;;;;;7.95;1.10;;;;;;;;;;5037672;28;20105;-69
2022/01/30 11:21:59;;;;;;;6.18;1.40;;;;;;;;;;5051631;28;20064;-70
2022/01/30 11:24:29;;;;;;;6.95;1.60;;;;;;;;;;5038929;28;20095;-71
2022/01/30 11:26:59;;;;;;;7.65;1.45;;;;;;;;;;5042650;28;20106;-70
2022/01/30 11:29:29;;;;;;;6.22;1.27;;;;;;;;;;5039577;28;20045;-71
2022/01/30 11:31:58;;;;;;;6.38;1.63;;;;;;;;;;5037050;28;20057;-70
2022/01/30 11:34:28;;;;;;;3.63;1.20;;;;;;;;;;5042152;28;20057;-72
2022/01/30 11:36:58;;;;;;;4.85;1.58;;;;;;;;;;5044259;28;20049;-70
2022/01/30 11:39:26;;;;;;;10.63;1.38;;;;;;;;;;5045978;28;20048;-70
2022/01/30 11:42:13;;;;;;;12.95;1.77;;;;;;;;;;5043077;28;20056;-71
2022/01/30 11:44:43;;;;;;;6.75;1.48;;;;;;;;;;5039978;28;20555;-71
2022/01/30 11:47:23;;;;;;;6.60;1.80;;;;;;;;;;5041428;28;20057;-71
2022/01/30 11:50:06;;;;;;;5.80;1.67;;;;;;;;;;5037399;28;20848;-71
2022/01/30 11:53:02;;;;;;;8.80;1.83;;;;;;;;;;5040742;28;20041;-71
2022/01/30 11:56:01;;;;;;;7.68;1.55;;;;;;;;;;5014362;28;20131;-70
2022/01/30 11:58:46;;;;;;;3.65;1.20;;;;;;;;;;5038254;28;20106;-72
2022/01/30 12:01:34;;;;;;;11.50;1.83;;;;;;;;;;5042228;28;20099;-72
2022/01/30 12:04:06;;;;;;;7.35;1.40;;;;;;;;;;5039866;28;20049;-72
2022/01/30 12:06:37;;;;;;;4.68;1.23;;;;;;;;;;5040041;28;20123;-71
2022/01/30 12:09:19;;;;;;;3.90;1.50;;;;;;;;;;5040286;28;20049;-72
2022/01/30 12:11:51;;;;;;;8.48;1.80;;;;;;;;;;5044701;28;20049;-71
2022/01/30 12:14:43;;;;;;;4.25;1.40;;;;;;;;;;5045431;28;20048;-72
2022/01/30 12:17:11;;;;;;;4.70;1.23;;;;;;;;;;5021038;28;20053;-72
2022/01/30 12:19:58;;;;;;;4.82;1.42;;;;;;;;;;5036057;28;20111;-73
2022/01/30 12:22:41;;;;;;;2.92;1.15;;;;;;;;;;5045863;28;20060;-73
2022/01/30 12:25:29;;;;;;;6.85;1.55;;;;;;;;;;5045440;28;20132;-71
2022/01/30 12:28:00;;;;;;;7.10;1.10;;;;;;;;;;5038743;28;20045;-71
2022/01/30 12:30:32;;;;;;;7.40;1.73;;;;;;;;;;5050952;28;20069;-70
2022/01/30 12:33:01;;;;;;;5.63;1.42;;;;;;;;;;5045382;28;20527;-70
2022/01/30 12:35:29;;;;;;;7.53;1.30;;;;;;;;;;5040184;28;20405;-70
2022/01/30 12:37:59;;;;;;;6.47;1.25;;;;;;;;;;5036569;28;20049;-70
2022/01/30 12:40:28;;;;;;;5.88;1.35;;;;;;;;;;5044179;28;20485;-70
2022/01/30 12:42:57;;;;;;;5.03;0.98;;;;;;;;;;5041055;28;20045;-72
2022/01/30 12:45:25;;;;;;;7.55;1.23;;;;;;;;;;5049077;28;20516;-72
2022/01/30 12:47:56;;;;;;;6.10;1.00;;;;;;;;;;5047809;28;20080;-72
2022/01/30 12:50:30;;;;;;;4.22;1.00;;;;;;;;;;5044301;28;20057;-72
2022/01/30 12:53:10;;;;;;;4.05;1.20;;;;;;;;;;966563;28;10022638;-72
2022/01/30 12:55:39;;;;;;;4.20;1.13;;;;;;;;;;4693267;28;10001300;-71
2022/01/30 12:58:08;;;;;;;6.07;1.77;;;;;;;;;;5047820;28;20493;-72
2022/01/30 13:00:36;;;;;;;4.75;1.10;;;;;;;;;;5050791;28;20381;-72
2022/01/30 13:03:05;;;;;;;8.57;2.22;;;;;;;;;;5052635;28;20519;-72
2022/01/30 13:05:44;;;;;;;10.98;1.05;;;;;;;;;;5048462;28;20624;-72
2022/01/30 13:08:14;;;;;;;6.93;1.35;;;;;;;;;;5048288;28;20051;-72
2022/01/30 13:10:43;;;;;;;4.70;1.08;;;;;;;;;;5035991;28;20785;-72
2022/01/30 13:13:12;;;;;;;6.80;1.25;;;;;;;;;;5045201;28;20541;-72
2022/01/30 13:15:41;;;;;;;6.35;1.30;;;;;;;;;;5042248;28;20507;-72
2022/01/30 13:18:10;;;;;;;6.03;1.23;;;;;;;;;;5048100;28;20507;-72
2022/01/30 13:20:39;;;;;;;9.18;1.48;;;;;;;;;;5041809;28;20115;-72
2022/01/30 13:23:08;;;;;;;5.03;1.27;;;;;;;;;;5048321;28;20045;-72
2022/01/30 13:25:38;;;;;;;6.90;1.55;;;;;;;;;;5043442;28;20056;-72
2022/01/30 13:28:07;;;;;;;4.95;0.95;;;;;;;;;;5039190;28;20124;-72
2022/01/30 13:30:37;;;;;;;6.00;1.08;;;;;;;;;;5048382;28;20049;-72
2022/01/30 13:33:06;;;;;;;4.53;1.20;;;;;;;;;;5040012;28;20060;-73
2022/01/30 13:35:34;;;;;;;7.05;1.10;;;;;;;;;;5042816;28;20055;-72
2022/01/30 13:38:06;;;;;;;10.75;1.58;;;;;;;;;;5044478;28;20051;-72
2022/01/30 13:40:40;;;;;;;4.78;1.23;;;;;;;;;;5042790;28;20045;-72
2022/01/30 13:43:21;;;;;;;2.33;0.93;;;;;;;;;;5035646;28;20045;-71
2022/01/30 13:48:39;;;;;;;4.57;1.38;;;;;;;;;;5037090;28;20572;-71
2022/01/30 13:51:08;;;;;;;3.10;1.20;;;;;;;;;;5047760;28;20041;-72
2022/01/30 13:53:37;;;;;;;2.67;0.88;;;;;;;;;;5048705;28;20049;-71
2022/01/30 13:56:12;;;;;;;2.72;1.10;;;;;;;;;;5043476;28;20060;-71
2022/01/30 13:58:47;;;;;;;8.65;1.45;;;;;;;;;;5038748;28;20045;-72
2022/01/30 14:01:17;;;;;;;3.85;1.10;;;;;;;;;;5037162;28;20110;-72
2022/01/30 14:03:47;;;;;;;3.60;1.13;;;;;;;;;;4990426;28;20053;-72
2022/01/30 14:06:19;;;;;;;4.23;1.20;;;;;;;;;;317770;28;10022691;-72
2022/01/30 14:08:52;;;;;;;4.10;0.73;;;;;;;;;;5036886;28;20144;-72
2022/01/30 14:11:26;;;;;;;4.05;1.00;;;;;;;;;;5022662;28;20041;-72
2022/01/30 14:13:59;;;;;;;8.45;1.15;;;;;;;;;;5022153;28;20347;-72
2022/01/30 14:16:35;;;;;;;5.30;1.02;;;;;;;;;;5018542;28;20053;-71
2022/01/30 14:19:05;;;;;;;4.00;1.35;;;;;;;;;;5015796;28;20129;-72
2022/01/30 14:21:34;;;;;;;2.38;0.88;;;;;;;;;;5022375;28;20057;-71
2022/01/30 14:24:14;;;;;;;5.03;1.48;;;;;;;;;;5011182;28;20060;-72
2022/01/30 14:26:43;;;;;;;2.88;1.10;;;;;;;;;;5013672;28;20049;-72
2022/01/30 14:29:14;;;;;;;4.35;1.00;;;;;;;;;;5021208;28;20049;-71
2022/01/30 14:31:54;;;;;;;8.02;1.48;;;;;;;;;;5021702;28;20417;-71
2022/01/30 14:34:24;;;;;;;6.90;1.48;;;;;;;;;;5010146;28;20055;-71
2022/01/30 14:36:54;;;;;;;2.47;1.20;;;;;;;;;;5014844;28;20481;-71
2022/01/30 14:39:23;;;;;;;7.90;1.33;;;;;;;;;;5021619;28;20064;-71
2022/01/30 14:41:52;;;;;;;7.78;1.45;;;;;;;;;;5020477;28;20087;-71
2022/01/30 14:44:22;;;;;;;7.45;1.30;;;;;;;;;;5022324;28;20132;-71
2022/01/30 14:46:51;;;;;;;3.45;1.42;;;;;;;;;;5017544;28;20129;-72
2022/01/30 14:49:20;;;;;;;7.53;1.45;;;;;;;;;;5025066;28;20156;-71
2022/01/30 14:51:49;;;;;;;9.18;1.30;;;;;;;;;;5021276;28;20134;-71
2022/01/30 14:54:19;;;;;;;4.72;1.33;;;;;;;;;;5018552;28;20462;-72
2022/01/30 14:56:48;;;;;;;6.10;1.00;;;;;;;;;;5018948;28;20048;-71
2022/01/30 14:59:17;;;;;;;4.32;1.13;;;;;;;;;;5018758;28;20396;-71
2022/01/30 15:01:47;;;;;;;3.85;1.10;;;;;;;;;;5017816;28;20474;-71
2022/01/30 15:04:16;;;;;;;4.88;1.38;;;;;;;;;;5020770;28;20053;-71
2022/01/30 15:06:46;;;;;;;6.90;1.15;;;;;;;;;;5015021;28;20041;-71
2022/01/30 15:09:14;;;;;;;6.45;1.90;;;;;;;;;;5032162;28;20063;-71
2022/01/30 15:11:43;;;;;;;6.30;1.70;;;;;;;;;;5042624;28;20102;-71
2022/01/30 15:14:13;;;;;;;7.30;1.63;;;;;;;;;;5040696;28;20052;-72
2022/01/30 15:16:44;;;;;;;7.03;1.95;;;;;;;;;;5037725;28;20049;-71
2022/01/30 15:19:15;;;;;;;10.43;1.95;;;;;;;;;;5029863;28;20083;-71
2022/01/30 15:21:45;;;;;;;6.00;1.92;;;;;;;;;;5040562;28;20044;-71
2022/01/30 15:24:14;;;;;;;11.20;1.77;;;;;;;;;;5040534;28;20053;-71
2022/01/30 15:26:43;;;;;;;7.65;1.55;;;;;;;;;;5040667;28;20053;-71
2022/01/30 15:29:13;;;;;;;8.05;1.60;;;;;;;;;;5042666;28;20044;-71
2022/01/30 15:31:42;;;;;;;9.43;1.67;;;;;;;;;;5040356;28;20126;-71
2022/01/30 15:34:13;;;;;;;4.88;1.42;;;;;;;;;;5040818;28;20045;-71
2022/01/30 15:36:43;;;;;;;5.03;1.33;;;;;;;;;;5037816;28;20072;-71
2022/01/30 15:39:12;;;;;;;4.78;1.15;;;;;;;;;;5036950;28;20045;-71
2022/01/30 15:42:00;;;;;;;6.28;1.60;;;;;;;;;;5038692;28;20107;-71